createdAt,value
2023-01-31T00:00:11.906Z,4.4
2023-01-31T00:01:28.184Z,4.5
2023-01-31T00:02:44.476Z,4.5
2023-01-31T00:04:00.768Z,4.5
2023-01-31T00:05:17.058Z,4.4
2023-01-31T00:06:32.371Z,4.5
2023-01-31T00:07:48.668Z,4.5
2023-01-31T00:09:04.953Z,4.4
2023-01-31T00:10:21.258Z,4.5
2023-01-31T00:11:37.544Z,4.4
2023-01-31T00:12:53.858Z,4.4
2023-01-31T00:14:10.148Z,4.4
2023-01-31T00:15:26.444Z,4.4
2023-01-31T00:16:42.713Z,4.5
2023-01-31T00:17:59.027Z,4.5
2023-01-31T00:19:15.309Z,4.5
2023-01-31T00:20:31.596Z,4.4
2023-01-31T00:21:47.887Z,4.5
2023-01-31T00:23:03.218Z,4.5
2023-01-31T00:24:19.500Z,4.5
2023-01-31T00:25:35.784Z,4.6
2023-01-31T00:26:52.097Z,4.6
2023-01-31T00:28:08.374Z,4.6
2023-01-31T00:29:24.665Z,4.6
2023-01-31T00:30:40.965Z,4.5
2023-01-31T00:31:57.262Z,4.5
2023-01-31T00:33:13.545Z,4.5
2023-01-31T00:34:29.842Z,4.5
2023-01-31T00:35:46.146Z,4.4
2023-01-31T00:37:02.435Z,4.5
2023-01-31T00:38:18.745Z,4.4
2023-01-31T00:39:34.042Z,4.4
2023-01-31T00:40:50.331Z,4.4
2023-01-31T00:42:06.639Z,4.3
2023-01-31T00:43:22.921Z,4.3
2023-01-31T00:44:39.213Z,4.3
2023-01-31T00:45:55.518Z,4.2
2023-01-31T00:47:11.798Z,4.2
2023-01-31T00:48:28.099Z,4.2
2023-01-31T00:49:44.390Z,4.2
2023-01-31T00:51:00.683Z,4.2
2023-01-31T00:52:16.978Z,4.2
2023-01-31T00:53:33.263Z,4.1
2023-01-31T00:54:49.553Z,4.1
2023-01-31T00:56:04.872Z,4.1
2023-01-31T00:57:21.162Z,4.1
2023-01-31T00:58:37.454Z,4.1
2023-01-31T00:59:53.758Z,4.2
2023-01-31T01:01:10.048Z,4.2
2023-01-31T01:02:26.333Z,4.2
2023-01-31T01:03:42.624Z,4.2
2023-01-31T01:04:58.920Z,4.2
2023-01-31T01:06:15.224Z,4.3
2023-01-31T01:07:31.510Z,4.3
2023-01-31T01:08:47.813Z,4.2
2023-01-31T01:10:04.105Z,4.3
2023-01-31T01:11:20.383Z,4.2
2023-01-31T01:12:35.695Z,4.2
2023-01-31T01:13:51.997Z,4.2
2023-01-31T01:15:08.292Z,4.2
2023-01-31T01:16:24.584Z,4.1
2023-01-31T01:17:40.886Z,4.1
2023-01-31T01:18:57.185Z,4.1
2023-01-31T01:20:13.468Z,4.1
2023-01-31T01:21:29.765Z,4.1
2023-01-31T01:22:46.044Z,4.1
2023-01-31T01:24:02.335Z,4.1
2023-01-31T01:25:18.627Z,4.1
2023-01-31T01:26:34.936Z,4.1
2023-01-31T01:27:51.217Z,4.1
2023-01-31T01:29:06.544Z,4
2023-01-31T01:30:22.831Z,4
2023-01-31T01:31:39.120Z,3.9
2023-01-31T01:32:55.413Z,4
2023-01-31T01:34:11.710Z,3.9
2023-01-31T01:35:28.007Z,4
2023-01-31T01:36:44.305Z,4
2023-01-31T01:38:00.600Z,4
2023-01-31T01:39:16.890Z,4
2023-01-31T01:40:33.184Z,4
2023-01-31T01:41:49.474Z,3.9
2023-01-31T01:43:05.753Z,3.9
2023-01-31T01:44:22.060Z,3.9
2023-01-31T01:45:37.368Z,4
2023-01-31T01:46:53.649Z,4
2023-01-31T01:48:09.948Z,3.9
2023-01-31T01:49:26.266Z,4
2023-01-31T01:50:42.534Z,3.9
2023-01-31T01:51:58.835Z,4
2023-01-31T01:53:15.128Z,4
2023-01-31T01:54:31.412Z,4
2023-01-31T01:55:47.713Z,4
2023-01-31T01:57:04.013Z,4
2023-01-31T01:58:20.302Z,4
2023-01-31T01:59:36.587Z,4
2023-01-31T02:00:52.882Z,4
2023-01-31T02:02:08.188Z,4
2023-01-31T02:03:24.496Z,4
2023-01-31T02:04:40.797Z,4
2023-01-31T02:05:57.076Z,4
2023-01-31T02:07:13.376Z,4
2023-01-31T02:08:29.665Z,4
2023-01-31T02:09:45.962Z,3.9
2023-01-31T02:11:02.000Z,4
2023-01-31T02:12:18.551Z,4
2023-01-31T02:13:34.847Z,3.9
2023-01-31T02:14:51.124Z,4
2023-01-31T02:16:07.416Z,4
2023-01-31T02:17:23.722Z,4
2023-01-31T02:18:39.037Z,4
2023-01-31T02:19:55.314Z,4
2023-01-31T02:21:11.619Z,4
2023-01-31T02:22:27.915Z,4.1
2023-01-31T02:23:44.207Z,4.1
2023-01-31T02:24:59.531Z,4
2023-01-31T02:26:15.821Z,4.1
2023-01-31T02:27:32.103Z,4
2023-01-31T02:28:48.415Z,4.1
2023-01-31T02:30:04.699Z,4.1
2023-01-31T02:31:20.992Z,4.1
2023-01-31T02:32:37.271Z,4.1
2023-01-31T02:33:53.570Z,4
2023-01-31T02:35:09.856Z,4
2023-01-31T02:36:26.175Z,4.1
2023-01-31T02:37:42.454Z,4.1
2023-01-31T02:38:58.762Z,4.1
2023-01-31T02:40:15.033Z,4.1
2023-01-31T02:41:30.372Z,4.1
2023-01-31T02:42:46.645Z,4.1
2023-01-31T02:44:02.948Z,4.1
2023-01-31T02:45:19.235Z,4.1
2023-01-31T02:46:35.529Z,4.1
2023-01-31T02:47:51.827Z,4.1
2023-01-31T02:49:08.128Z,4.1
2023-01-31T02:50:24.409Z,4.1
2023-01-31T02:51:40.689Z,4.1
2023-01-31T02:52:56.999Z,4.1
2023-01-31T02:54:13.284Z,4.1
2023-01-31T02:55:29.571Z,4.1
2023-01-31T02:56:45.870Z,4.1
2023-01-31T02:58:01.183Z,4.1
2023-01-31T02:59:17.467Z,4.1
2023-01-31T03:00:33.761Z,4.1
2023-01-31T03:01:50.067Z,4.1
2023-01-31T03:03:06.367Z,4.1
2023-01-31T03:04:22.648Z,4.1
2023-01-31T03:05:38.955Z,4.1
2023-01-31T03:06:55.242Z,4.1
2023-01-31T03:08:11.548Z,4.1
2023-01-31T03:09:27.830Z,4.1
2023-01-31T03:10:44.133Z,4.1
2023-01-31T03:12:00.414Z,4.1
2023-01-31T03:13:16.695Z,4.1
2023-01-31T03:14:32.016Z,4.1
2023-01-31T03:15:48.311Z,4.1
2023-01-31T03:17:04.599Z,4.1
2023-01-31T03:18:20.886Z,4.1
2023-01-31T03:19:37.183Z,4.1
2023-01-31T03:20:53.491Z,4.1
2023-01-31T03:22:09.769Z,4.1
2023-01-31T03:23:26.088Z,4.1
2023-01-31T03:24:42.368Z,4.1
2023-01-31T03:25:58.648Z,4.1
2023-01-31T03:27:14.941Z,4.2
2023-01-31T03:28:31.239Z,4.1
2023-01-31T03:29:47.529Z,4.1
2023-01-31T03:31:02.840Z,4.1
2023-01-31T03:32:19.134Z,4.1
2023-01-31T03:33:35.423Z,4.1
2023-01-31T03:34:51.737Z,4.1
2023-01-31T03:36:08.026Z,4.1
2023-01-31T03:37:24.322Z,4.1
2023-01-31T03:38:40.614Z,4.1
2023-01-31T03:39:56.906Z,4.1
2023-01-31T03:41:13.200Z,4.1
2023-01-31T03:42:29.496Z,4.1
2023-01-31T03:43:45.776Z,4.1
2023-01-31T03:45:02.071Z,4
2023-01-31T03:46:18.381Z,4
2023-01-31T03:47:33.678Z,4
2023-01-31T03:48:49.962Z,4
2023-01-31T03:50:06.257Z,4
2023-01-31T03:51:22.564Z,4
2023-01-31T03:52:38.858Z,4.1
2023-01-31T03:53:55.148Z,4.1
2023-01-31T03:55:11.441Z,4
2023-01-31T03:56:27.748Z,4
2023-01-31T03:57:44.032Z,4
2023-01-31T03:59:00.323Z,4
2023-01-31T04:00:16.620Z,4
2023-01-31T04:01:32.915Z,4.1
2023-01-31T04:02:49.192Z,4.1
2023-01-31T04:04:04.516Z,4.1
2023-01-31T04:05:20.818Z,4
2023-01-31T04:06:37.094Z,4.1
2023-01-31T04:07:53.393Z,4.1
2023-01-31T04:09:09.682Z,4.1
2023-01-31T04:10:25.992Z,4.1
2023-01-31T04:11:42.267Z,4.1
2023-01-31T04:12:58.575Z,4.1
2023-01-31T04:14:14.864Z,4.1
2023-01-31T04:15:31.157Z,4.1
2023-01-31T04:16:47.450Z,4.1
2023-01-31T04:18:03.733Z,4.1
2023-01-31T04:19:20.034Z,4.1
2023-01-31T04:20:35.352Z,4.1
2023-01-31T04:21:51.638Z,4.1
2023-01-31T04:23:07.945Z,4.1
2023-01-31T04:24:24.222Z,4.1
2023-01-31T04:25:40.514Z,4.1
2023-01-31T04:26:56.819Z,4.1
2023-01-31T04:28:13.116Z,4.1
2023-01-31T04:29:29.398Z,4.1
2023-01-31T04:30:45.698Z,4.1
2023-01-31T04:32:01.976Z,4.1
2023-01-31T04:33:18.269Z,4
2023-01-31T04:34:34.564Z,4.1
2023-01-31T04:35:50.859Z,4
2023-01-31T04:37:06.179Z,4.1
2023-01-31T04:38:22.465Z,4.1
2023-01-31T04:39:38.751Z,4
2023-01-31T04:40:55.047Z,4
2023-01-31T04:42:11.347Z,4
2023-01-31T04:43:27.630Z,4
2023-01-31T04:44:43.947Z,4
2023-01-31T04:46:00.229Z,3.9
2023-01-31T04:47:16.516Z,3.9
2023-01-31T04:48:32.805Z,3.9
2023-01-31T04:49:49.107Z,3.9
2023-01-31T04:51:05.408Z,3.9
2023-01-31T04:52:21.694Z,3.8
2023-01-31T04:53:37.022Z,3.8
2023-01-31T04:54:53.290Z,3.8
2023-01-31T04:56:09.602Z,3.8
2023-01-31T04:57:25.892Z,3.8
2023-01-31T04:58:42.182Z,3.8
2023-01-31T04:59:58.475Z,3.8
2023-01-31T05:01:14.760Z,3.8
2023-01-31T05:02:31.051Z,3.8
2023-01-31T05:03:47.356Z,3.8
2023-01-31T05:05:03.649Z,3.8
2023-01-31T05:07:36.231Z,3.8
2023-01-31T05:08:52.537Z,3.7
2023-01-31T05:10:07.834Z,3.7
2023-01-31T05:11:24.133Z,3.7
2023-01-31T05:12:40.414Z,3.7
2023-01-31T05:13:56.722Z,3.7
2023-01-31T05:15:13.027Z,3.7
2023-01-31T05:16:29.312Z,3.7
2023-01-31T05:17:45.590Z,3.7
2023-01-31T05:19:01.883Z,3.6
2023-01-31T05:20:18.182Z,3.6
2023-01-31T05:21:34.481Z,3.6
2023-01-31T05:22:50.781Z,3.7
2023-01-31T05:24:07.069Z,3.6
2023-01-31T05:25:23.349Z,3.6
2023-01-31T05:26:38.672Z,3.6
2023-01-31T05:27:54.959Z,3.6
2023-01-31T05:29:11.253Z,3.6
2023-01-31T05:30:27.552Z,3.6
2023-01-31T05:31:43.845Z,3.6
2023-01-31T05:33:00.144Z,3.6
2023-01-31T05:34:16.436Z,3.5
2023-01-31T05:35:32.732Z,3.6
2023-01-31T05:36:49.036Z,3.5
2023-01-31T05:38:05.311Z,3.5
2023-01-31T05:39:21.606Z,3.5
2023-01-31T05:40:37.909Z,3.5
2023-01-31T05:41:54.203Z,3.5
2023-01-31T05:43:09.495Z,3.5
2023-01-31T05:44:25.805Z,3.5
2023-01-31T05:45:42.096Z,3.5
2023-01-31T05:46:58.392Z,3.5
2023-01-31T05:48:14.667Z,3.5
2023-01-31T05:49:30.976Z,3.5
2023-01-31T05:50:47.268Z,3.5
2023-01-31T05:52:03.554Z,3.5
2023-01-31T05:53:19.848Z,3.5
2023-01-31T05:54:36.143Z,3.5
2023-01-31T05:55:52.447Z,3.4
2023-01-31T05:57:08.734Z,3.5
2023-01-31T05:58:25.044Z,3.5
2023-01-31T05:59:41.454Z,3.5
2023-01-31T06:00:57.732Z,3.4
2023-01-31T06:02:14.028Z,3.4
2023-01-31T06:03:30.333Z,3.4
2023-01-31T06:04:46.620Z,3.5
2023-01-31T06:06:02.920Z,3.5
2023-01-31T06:07:19.191Z,3.5
2023-01-31T06:08:35.500Z,3.5
2023-01-31T06:09:51.791Z,3.5
2023-01-31T06:11:08.073Z,3.5
2023-01-31T06:12:24.369Z,3.5
2023-01-31T06:13:40.675Z,3.5
2023-01-31T06:14:56.967Z,3.6
2023-01-31T06:16:12.279Z,3.6
2023-01-31T06:17:28.567Z,3.5
2023-01-31T06:18:44.868Z,3.5
2023-01-31T06:20:01.091Z,3.5
2023-01-31T06:21:17.395Z,3.5
2023-01-31T06:22:33.679Z,3.5
2023-01-31T06:23:49.985Z,3.5
2023-01-31T06:25:06.222Z,3.6
2023-01-31T06:26:22.463Z,3.6
2023-01-31T06:27:38.769Z,3.6
2023-01-31T06:28:55.073Z,3.6
2023-01-31T06:30:11.320Z,3.6
2023-01-31T06:31:27.562Z,3.6
2023-01-31T06:32:42.843Z,3.7
2023-01-31T06:33:59.060Z,3.6
2023-01-31T06:35:15.348Z,3.6
2023-01-31T06:36:31.598Z,3.6
2023-01-31T06:37:47.844Z,3.7
2023-01-31T06:39:04.072Z,3.6
2023-01-31T06:40:19.334Z,3.7
2023-01-31T06:41:35.601Z,3.6
2023-01-31T06:42:51.814Z,3.7
2023-01-31T06:44:08.061Z,3.7
2023-01-31T06:45:24.297Z,3.7
2023-01-31T06:47:56.774Z,3.7
2023-01-31T06:49:13.025Z,3.7
2023-01-31T06:50:29.265Z,3.7
2023-01-31T06:51:45.505Z,3.7
2023-01-31T06:53:01.731Z,3.7
2023-01-31T06:54:17.972Z,3.7
2023-01-31T06:55:34.218Z,3.7
2023-01-31T06:56:49.481Z,3.7
2023-01-31T06:58:05.713Z,3.8
2023-01-31T06:59:21.952Z,3.8
2023-01-31T07:00:38.197Z,3.8
2023-01-31T07:01:54.439Z,3.8
2023-01-31T07:03:10.674Z,3.8
2023-01-31T07:04:26.909Z,3.8
2023-01-31T07:05:43.159Z,3.8
2023-01-31T07:06:59.394Z,3.8
2023-01-31T07:08:15.621Z,3.8
2023-01-31T07:09:31.872Z,3.8
2023-01-31T07:10:48.117Z,3.8
2023-01-31T07:12:04.366Z,3.8
2023-01-31T07:13:19.608Z,3.9
2023-01-31T07:14:35.834Z,3.9
2023-01-31T07:15:52.073Z,3.9
2023-01-31T07:17:08.330Z,3.9
2023-01-31T07:18:24.566Z,3.9
2023-01-31T07:19:40.810Z,4
2023-01-31T07:20:57.041Z,3.9
2023-01-31T07:22:13.278Z,4
2023-01-31T07:23:29.529Z,4
2023-01-31T07:24:45.758Z,4
2023-01-31T07:26:02.016Z,4
2023-01-31T07:27:18.229Z,4.1
2023-01-31T07:28:34.482Z,4
2023-01-31T07:29:49.745Z,4
2023-01-31T07:31:05.981Z,4.1
2023-01-31T07:32:22.223Z,4.1
2023-01-31T07:33:38.475Z,4.1
2023-01-31T07:34:54.689Z,4.1
2023-01-31T07:36:10.952Z,4.2
2023-01-31T07:37:27.173Z,4.2
2023-01-31T07:38:43.406Z,4.2
2023-01-31T07:39:59.649Z,4.2
2023-01-31T07:41:15.890Z,4.2
2023-01-31T07:42:32.121Z,4.2
2023-01-31T07:43:48.378Z,4.2
2023-01-31T07:45:04.610Z,4.1
2023-01-31T07:46:19.890Z,4.1
2023-01-31T07:47:36.095Z,4.1
2023-01-31T07:48:52.338Z,4.1
2023-01-31T07:50:08.588Z,4.1
2023-01-31T07:51:24.824Z,4.1
2023-01-31T07:52:41.085Z,4.1
2023-01-31T07:53:57.290Z,4
2023-01-31T07:55:13.550Z,4
2023-01-31T07:56:29.773Z,4
2023-01-31T07:57:46.037Z,3.9
2023-01-31T07:59:02.254Z,3.9
2023-01-31T08:00:18.495Z,3.9
2023-01-31T08:01:34.737Z,3.9
2023-01-31T08:02:49.984Z,3.9
2023-01-31T08:04:06.241Z,3.9
2023-01-31T08:05:22.468Z,3.9
2023-01-31T08:06:38.722Z,3.9
2023-01-31T08:07:54.952Z,4
2023-01-31T08:10:27.423Z,4
2023-01-31T08:11:43.664Z,4
2023-01-31T08:12:59.921Z,4
2023-01-31T08:14:16.153Z,4.1
2023-01-31T08:15:32.387Z,4.1
2023-01-31T08:16:48.618Z,4.1
2023-01-31T08:18:04.889Z,4.2
2023-01-31T08:19:20.124Z,4.2
2023-01-31T08:20:36.360Z,4.2
2023-01-31T08:21:52.601Z,4.2
2023-01-31T08:23:08.857Z,4.3
2023-01-31T08:24:25.108Z,4.3
2023-01-31T08:25:41.314Z,4.3
2023-01-31T08:26:57.552Z,4.3
2023-01-31T08:28:13.807Z,4.3
2023-01-31T08:29:30.044Z,4.3
2023-01-31T08:30:46.273Z,4.3
2023-01-31T08:32:02.508Z,4.3
2023-01-31T08:33:18.748Z,4.3
2023-01-31T08:34:35.008Z,4.3
2023-01-31T08:35:50.256Z,4.3
2023-01-31T08:37:06.503Z,4.3
2023-01-31T08:38:22.731Z,4.3
2023-01-31T08:39:38.974Z,4.3
2023-01-31T08:40:55.209Z,4.4
2023-01-31T08:42:11.459Z,4.4
2023-01-31T08:43:27.697Z,4.3
2023-01-31T08:44:43.925Z,4.3
2023-01-31T08:46:00.167Z,4.3
2023-01-31T08:47:16.416Z,4.3
2023-01-31T08:48:32.655Z,4.3
2023-01-31T08:49:48.896Z,4.3
2023-01-31T08:51:05.144Z,4.4
2023-01-31T08:52:20.384Z,4.4
2023-01-31T08:53:36.621Z,4.3
2023-01-31T08:54:52.861Z,4.4
2023-01-31T08:56:09.095Z,4.3
2023-01-31T08:57:25.343Z,4.4
2023-01-31T08:58:41.571Z,4.4
2023-01-31T08:59:57.815Z,4.4
2023-01-31T09:01:14.055Z,4.4
2023-01-31T09:02:30.296Z,4.4
2023-01-31T09:03:46.553Z,4.4
2023-01-31T09:05:02.770Z,4.4
2023-01-31T09:06:19.030Z,4.4
2023-01-31T09:07:35.258Z,4.4
2023-01-31T09:08:50.510Z,4.4
2023-01-31T09:10:06.746Z,4.4
2023-01-31T09:11:23.002Z,4.4
2023-01-31T09:12:39.239Z,4.4
2023-01-31T09:13:55.487Z,4.4
2023-01-31T09:15:11.706Z,4.4
2023-01-31T09:16:27.945Z,4.4
2023-01-31T09:17:44.190Z,4.4
2023-01-31T09:19:00.427Z,4.5
2023-01-31T09:20:16.680Z,4.5
2023-01-31T09:21:32.902Z,4.5
2023-01-31T09:22:49.143Z,4.5
2023-01-31T09:24:05.396Z,4.5
2023-01-31T09:25:20.640Z,4.5
2023-01-31T09:26:36.896Z,4.6
2023-01-31T09:29:09.354Z,4.5
2023-01-31T09:30:25.602Z,4.6
2023-01-31T09:31:41.847Z,4.6
2023-01-31T09:32:58.069Z,4.6
2023-01-31T09:34:14.310Z,4.6
2023-01-31T09:35:30.567Z,4.6
2023-01-31T09:36:46.793Z,4.6
2023-01-31T09:38:03.047Z,4.7
2023-01-31T09:39:19.275Z,4.7
2023-01-31T09:40:35.514Z,4.7
2023-01-31T09:41:50.779Z,4.7
2023-01-31T09:43:07.026Z,4.8
2023-01-31T09:44:23.251Z,4.8
2023-01-31T09:45:39.488Z,4.8
2023-01-31T09:46:55.737Z,4.9
2023-01-31T09:48:11.977Z,4.8
2023-01-31T09:49:28.204Z,4.9
2023-01-31T09:50:44.469Z,4.9
2023-01-31T09:52:00.702Z,4.9
2023-01-31T09:53:16.921Z,4.9
2023-01-31T09:54:33.179Z,4.9
2023-01-31T09:55:49.403Z,4.9
2023-01-31T09:57:05.656Z,4.9
2023-01-31T09:58:20.907Z,4.9
2023-01-31T09:59:37.148Z,5
2023-01-31T10:00:53.375Z,5
2023-01-31T10:02:09.622Z,5
2023-01-31T10:03:25.861Z,5
2023-01-31T10:04:42.122Z,5
2023-01-31T10:05:58.348Z,5
2023-01-31T10:07:14.575Z,5
2023-01-31T10:08:30.820Z,5
2023-01-31T10:09:47.048Z,5.1
2023-01-31T10:11:03.300Z,5.1
2023-01-31T10:12:19.526Z,5.1
2023-01-31T10:13:35.765Z,5.1
2023-01-31T10:14:51.040Z,5.2
2023-01-31T10:16:07.280Z,5.1
2023-01-31T10:17:23.530Z,5.2
2023-01-31T10:18:39.755Z,5.2
2023-01-31T10:19:55.987Z,5.2
2023-01-31T10:21:12.217Z,5.2
2023-01-31T10:22:28.472Z,5.2
2023-01-31T10:23:44.713Z,5.2
2023-01-31T10:25:00.966Z,5.3
2023-01-31T10:26:17.182Z,5.3
2023-01-31T10:27:33.420Z,5.4
2023-01-31T10:28:49.667Z,5.3
2023-01-31T10:30:05.896Z,5.4
2023-01-31T10:31:21.150Z,5.4
2023-01-31T10:32:37.391Z,5.4
2023-01-31T10:33:53.635Z,5.4
2023-01-31T10:35:09.874Z,5.4
2023-01-31T10:36:26.111Z,5.4
2023-01-31T10:37:42.347Z,5.4
2023-01-31T10:38:58.598Z,5.4
2023-01-31T10:40:14.827Z,5.4
2023-01-31T10:41:31.085Z,5.4
2023-01-31T10:42:47.324Z,5.5
2023-01-31T10:44:03.558Z,5.5
2023-01-31T10:45:19.818Z,5.5
2023-01-31T10:46:36.039Z,5.5
2023-01-31T10:47:51.292Z,5.5
2023-01-31T10:49:07.526Z,5.5
2023-01-31T10:50:23.779Z,5.6
2023-01-31T10:51:39.995Z,5.6
2023-01-31T10:52:56.263Z,5.6
2023-01-31T10:54:12.480Z,5.6
2023-01-31T10:55:27.744Z,5.6
2023-01-31T10:56:44.008Z,5.6
2023-01-31T10:58:00.235Z,5.6
2023-01-31T10:59:16.462Z,5.6
2023-01-31T11:00:32.730Z,5.5
2023-01-31T11:01:48.946Z,5.6
2023-01-31T11:03:05.175Z,5.6
2023-01-31T11:04:21.422Z,5.6
2023-01-31T11:05:37.654Z,5.5
2023-01-31T11:06:53.905Z,5.5
2023-01-31T11:08:10.131Z,5.5
2023-01-31T11:09:26.389Z,5.5
2023-01-31T11:10:42.627Z,5.5
2023-01-31T11:11:57.873Z,5.5
2023-01-31T11:13:14.107Z,5.5
2023-01-31T11:14:30.349Z,5.5
2023-01-31T11:15:46.590Z,5.5
2023-01-31T11:17:02.827Z,5.5
2023-01-31T11:18:19.073Z,5.5
2023-01-31T11:19:35.306Z,5.5
2023-01-31T11:20:51.566Z,5.6
2023-01-31T11:22:07.785Z,5.5
2023-01-31T11:23:24.026Z,5.6
2023-01-31T11:24:40.276Z,5.5
2023-01-31T11:25:56.499Z,5.6
2023-01-31T11:27:12.742Z,5.5
2023-01-31T11:28:28.017Z,5.5
2023-01-31T11:29:44.257Z,5.5
2023-01-31T11:31:00.484Z,5.5
2023-01-31T11:32:16.724Z,5.5
2023-01-31T11:33:32.955Z,5.6
2023-01-31T11:34:49.199Z,5.6
2023-01-31T11:36:05.438Z,5.6
2023-01-31T11:37:21.694Z,5.5
2023-01-31T11:38:37.923Z,5.5
2023-01-31T11:39:54.156Z,5.5
2023-01-31T11:41:10.402Z,5.5
2023-01-31T11:42:26.649Z,5.5
2023-01-31T11:43:42.890Z,5.5
2023-01-31T11:44:58.141Z,5.5
2023-01-31T11:46:14.387Z,5.5
2023-01-31T11:47:30.612Z,5.5
2023-01-31T11:48:46.859Z,5.5
2023-01-31T11:50:03.101Z,5.5
2023-01-31T11:51:19.340Z,5.5
2023-01-31T11:52:35.588Z,5.5
2023-01-31T11:53:51.819Z,5.5
2023-01-31T11:55:08.054Z,5.5
2023-01-31T11:56:24.288Z,5.5
2023-01-31T11:57:40.527Z,5.4
2023-01-31T11:58:56.763Z,5.4
2023-01-31T12:00:13.018Z,5.4
2023-01-31T12:01:28.274Z,5.3
2023-01-31T12:02:44.519Z,5.3
2023-01-31T12:04:00.741Z,5.3
2023-01-31T12:05:17.004Z,5.3
2023-01-31T12:06:33.246Z,5.3
2023-01-31T12:07:49.468Z,5.3
2023-01-31T12:09:05.696Z,5.3
2023-01-31T12:10:21.949Z,5.4
2023-01-31T12:11:38.191Z,5.3
2023-01-31T12:12:54.422Z,5.3
2023-01-31T12:14:10.666Z,5.3
2023-01-31T12:15:26.910Z,5.3
2023-01-31T12:16:43.147Z,5.2
2023-01-31T12:17:58.402Z,5.2
2023-01-31T12:19:14.658Z,5.2
2023-01-31T12:20:30.884Z,5.2
2023-01-31T12:21:47.114Z,5.2
2023-01-31T12:23:03.359Z,5.1
2023-01-31T12:24:19.602Z,5.2
2023-01-31T12:25:35.832Z,5.2
2023-01-31T12:26:52.087Z,5.2
2023-01-31T12:28:08.320Z,5.3
2023-01-31T12:29:24.542Z,5.3
2023-01-31T12:30:40.806Z,5.3
2023-01-31T12:31:57.031Z,5.4
2023-01-31T12:33:13.265Z,5.4
2023-01-31T12:34:28.522Z,5.4
2023-01-31T12:35:44.759Z,5.4
2023-01-31T12:37:01.007Z,5.4
2023-01-31T12:38:17.236Z,5.4
2023-01-31T12:39:33.473Z,5.4
2023-01-31T12:40:49.734Z,5.4
2023-01-31T12:42:05.950Z,5.3
2023-01-31T12:43:22.212Z,5.2
2023-01-31T12:44:38.459Z,5.2
2023-01-31T12:45:54.683Z,5.2
2023-01-31T12:47:10.930Z,5.2
2023-01-31T12:48:27.167Z,5.2
2023-01-31T12:49:43.398Z,5.2
2023-01-31T12:50:58.648Z,5.2
2023-01-31T12:52:14.901Z,5.2
2023-01-31T12:53:31.131Z,5.2
2023-01-31T12:54:47.373Z,5.2
2023-01-31T12:56:03.612Z,5.2
2023-01-31T12:57:19.861Z,5.2
2023-01-31T12:58:36.083Z,5.2
2023-01-31T12:59:52.336Z,5.2
2023-01-31T13:01:08.568Z,5.2
2023-01-31T13:02:24.816Z,5.2
2023-01-31T13:03:41.054Z,5.2
2023-01-31T13:04:57.278Z,5.3
2023-01-31T13:06:13.535Z,5.3
2023-01-31T13:07:28.771Z,5.3
2023-01-31T13:08:45.012Z,5.3
2023-01-31T13:10:01.277Z,5.3
2023-01-31T13:11:17.512Z,5.3
2023-01-31T13:12:33.000Z,5.3
2023-01-31T13:13:49.971Z,5.3
2023-01-31T13:15:06.226Z,5.3
2023-01-31T13:16:22.468Z,5.3
2023-01-31T13:17:38.699Z,5.3
2023-01-31T13:18:54.945Z,5.3
2023-01-31T13:20:11.184Z,5.3
2023-01-31T13:21:27.425Z,5.3
2023-01-31T13:22:43.668Z,5.3
2023-01-31T13:23:58.907Z,5.3
2023-01-31T13:25:15.158Z,5.3
2023-01-31T13:26:31.381Z,5.4
2023-01-31T13:27:47.624Z,5.3
2023-01-31T13:29:03.858Z,5.4
2023-01-31T13:30:20.105Z,5.4
2023-01-31T13:31:36.346Z,5.4
2023-01-31T13:32:52.587Z,5.4
2023-01-31T13:34:08.823Z,5.4
2023-01-31T13:35:25.072Z,5.4
2023-01-31T13:36:41.316Z,5.4
2023-01-31T13:37:57.543Z,5.4
2023-01-31T13:39:13.792Z,5.4
2023-01-31T13:40:29.045Z,5.4
2023-01-31T13:41:45.277Z,5.5
2023-01-31T13:43:01.530Z,5.5
2023-01-31T13:44:17.750Z,5.5
2023-01-31T13:45:34.003Z,5.5
2023-01-31T13:46:50.233Z,5.5
2023-01-31T13:48:06.480Z,5.5
2023-01-31T13:49:22.722Z,5.6
2023-01-31T13:50:38.947Z,5.5
2023-01-31T13:51:55.202Z,5.6
2023-01-31T13:53:11.427Z,5.5
2023-01-31T13:54:27.682Z,5.5
2023-01-31T13:55:43.917Z,5.5
2023-01-31T13:56:59.169Z,5.5
2023-01-31T13:58:15.411Z,5.5
2023-01-31T13:59:31.642Z,5.5
2023-01-31T14:00:47.892Z,5.5
2023-01-31T14:02:04.131Z,5.5
2023-01-31T14:03:20.356Z,5.5
2023-01-31T14:04:36.605Z,5.5
2023-01-31T14:05:52.838Z,5.5
2023-01-31T14:07:09.085Z,5.5
2023-01-31T14:08:25.323Z,5.5
2023-01-31T14:09:41.560Z,5.5
2023-01-31T14:10:57.795Z,5.5
2023-01-31T14:12:14.048Z,5.5
2023-01-31T14:13:29.291Z,5.6
2023-01-31T14:14:45.542Z,5.5
2023-01-31T14:16:01.781Z,5.6
2023-01-31T14:17:18.011Z,5.6
2023-01-31T14:18:34.250Z,5.6
2023-01-31T14:19:50.502Z,5.6
2023-01-31T14:21:06.731Z,5.6
2023-01-31T14:22:22.970Z,5.5
2023-01-31T14:23:39.211Z,5.6
2023-01-31T14:24:55.453Z,5.5
2023-01-31T14:26:11.696Z,5.6
2023-01-31T14:27:27.930Z,5.6
2023-01-31T14:28:44.173Z,5.6
2023-01-31T14:29:59.429Z,5.6
2023-01-31T14:31:15.663Z,5.6
2023-01-31T14:32:31.901Z,5.6
2023-01-31T14:33:48.139Z,5.6
2023-01-31T14:35:04.377Z,5.6
2023-01-31T14:36:20.625Z,5.6
2023-01-31T14:37:36.854Z,5.6
2023-01-31T14:38:53.104Z,5.6
2023-01-31T14:40:09.347Z,5.6
2023-01-31T14:41:25.588Z,5.6
2023-01-31T14:42:41.823Z,5.6
2023-01-31T14:43:58.066Z,5.6
2023-01-31T14:45:14.290Z,5.5
2023-01-31T14:46:29.555Z,5.5
2023-01-31T14:47:45.795Z,5.4
2023-01-31T14:49:02.037Z,5.5
2023-01-31T14:50:18.267Z,5.5
2023-01-31T14:51:34.516Z,5.4
2023-01-31T14:52:50.762Z,5.4
2023-01-31T14:54:06.990Z,5.4
2023-01-31T14:55:23.238Z,5.4
2023-01-31T14:56:39.464Z,5.4
2023-01-31T14:57:55.702Z,5.3
2023-01-31T14:59:11.951Z,5.3
2023-01-31T15:00:28.184Z,5.2
2023-01-31T15:01:44.431Z,5.2
2023-01-31T15:02:59.678Z,5.1
2023-01-31T15:04:15.934Z,5
2023-01-31T15:05:32.158Z,5
2023-01-31T15:06:48.397Z,5
2023-01-31T15:08:04.643Z,4.9
2023-01-31T15:09:20.874Z,4.9
2023-01-31T15:10:36.145Z,4.9
2023-01-31T15:11:52.382Z,4.8
2023-01-31T15:13:08.627Z,4.8
2023-01-31T15:14:24.856Z,4.8
2023-01-31T15:15:41.107Z,4.8
2023-01-31T15:16:57.343Z,4.8
2023-01-31T15:18:13.587Z,4.8
2023-01-31T15:19:29.814Z,4.8
2023-01-31T15:20:46.060Z,4.7
2023-01-31T15:22:02.292Z,4.7
2023-01-31T15:23:18.533Z,4.7
2023-01-31T15:24:34.767Z,4.6
2023-01-31T15:25:51.012Z,4.7
2023-01-31T15:27:06.268Z,4.6
2023-01-31T15:28:22.504Z,4.6
2023-01-31T15:29:38.758Z,4.6
2023-01-31T15:30:54.983Z,4.6
2023-01-31T15:32:11.229Z,4.6
2023-01-31T15:33:27.459Z,4.6
2023-01-31T15:34:43.701Z,4.7
2023-01-31T15:35:59.955Z,4.6
2023-01-31T15:37:16.196Z,4.7
2023-01-31T15:38:32.430Z,4.7
2023-01-31T15:39:48.667Z,4.7
2023-01-31T15:41:04.909Z,4.7
2023-01-31T15:42:21.140Z,4.7
2023-01-31T15:43:36.408Z,4.8
2023-01-31T15:44:52.641Z,4.8
2023-01-31T15:46:08.874Z,4.8
2023-01-31T15:47:25.109Z,4.9
2023-01-31T15:48:41.364Z,4.9
2023-01-31T15:49:57.596Z,4.9
2023-01-31T15:51:13.841Z,4.9
2023-01-31T15:52:30.087Z,5
2023-01-31T15:53:46.321Z,5
2023-01-31T15:55:02.559Z,5
2023-01-31T15:56:18.790Z,5.1
2023-01-31T15:57:35.045Z,5.1
2023-01-31T15:58:51.266Z,5.1
2023-01-31T16:00:06.539Z,5.1
2023-01-31T16:01:22.773Z,5.1
2023-01-31T16:02:39.018Z,5.1
2023-01-31T16:03:55.000Z,5.2
2023-01-31T16:05:11.491Z,5.2
2023-01-31T16:06:27.731Z,5.2
2023-01-31T16:07:43.959Z,5.3
2023-01-31T16:09:00.209Z,5.3
2023-01-31T16:10:16.450Z,5.4
2023-01-31T16:11:32.691Z,5.4
2023-01-31T16:12:48.933Z,5.4
2023-01-31T16:14:05.231Z,5.4
2023-01-31T16:15:21.467Z,5.4
2023-01-31T16:16:36.728Z,5.4
2023-01-31T16:17:52.956Z,5.3
2023-01-31T16:19:09.255Z,5.4
2023-01-31T16:20:25.549Z,5.4
2023-01-31T16:21:41.841Z,5.4
2023-01-31T16:22:58.134Z,5.4
2023-01-31T16:24:14.437Z,5.5
2023-01-31T16:25:30.736Z,5.4
2023-01-31T16:26:47.022Z,5.5
2023-01-31T16:28:03.317Z,5.5
2023-01-31T16:29:19.608Z,5.5
2023-01-31T16:30:35.893Z,5.5
2023-01-31T16:31:52.195Z,5.5
2023-01-31T16:33:07.500Z,5.5
2023-01-31T16:34:23.788Z,5.5
2023-01-31T16:35:40.085Z,5.5
2023-01-31T16:36:56.382Z,5.5
2023-01-31T16:38:12.669Z,5.5
2023-01-31T16:39:28.966Z,5.5
2023-01-31T16:40:45.260Z,5.5
2023-01-31T16:42:01.560Z,5.5
2023-01-31T16:43:17.856Z,5.6
2023-01-31T16:44:34.144Z,5.6
2023-01-31T16:45:50.429Z,5.6
2023-01-31T16:47:06.726Z,5.5
2023-01-31T16:48:23.029Z,5.5
2023-01-31T16:49:38.329Z,5.5
2023-01-31T16:50:54.632Z,5.5
2023-01-31T16:52:10.921Z,5.6
2023-01-31T16:53:27.222Z,5.6
2023-01-31T16:54:43.500Z,5.6
2023-01-31T16:55:59.807Z,5.6
2023-01-31T16:57:16.086Z,5.6
2023-01-31T16:58:32.381Z,5.6
2023-01-31T16:59:48.683Z,5.6
2023-01-31T17:01:04.968Z,5.6
2023-01-31T17:02:21.261Z,5.6
2023-01-31T17:03:37.576Z,5.6
2023-01-31T17:04:53.852Z,5.5
2023-01-31T17:06:09.168Z,5.5
2023-01-31T17:07:25.467Z,5.6
2023-01-31T17:08:41.758Z,5.6
2023-01-31T17:09:58.038Z,5.6
2023-01-31T17:11:14.344Z,5.6
2023-01-31T17:12:30.630Z,5.6
2023-01-31T17:13:46.929Z,5.6
2023-01-31T17:15:03.220Z,5.6
2023-01-31T17:16:19.509Z,5.6
2023-01-31T17:17:35.813Z,5.6
2023-01-31T17:18:52.103Z,5.6
2023-01-31T17:20:08.398Z,5.6
2023-01-31T17:21:24.685Z,5.6
2023-01-31T17:22:39.998Z,5.6
2023-01-31T17:23:56.285Z,5.6
2023-01-31T17:25:12.580Z,5.6
2023-01-31T17:26:28.877Z,5.6
2023-01-31T17:27:45.176Z,5.6
2023-01-31T17:29:01.463Z,5.6
2023-01-31T17:30:17.764Z,5.6
2023-01-31T17:31:34.061Z,5.6
2023-01-31T17:32:50.355Z,5.6
2023-01-31T17:34:06.626Z,5.6
2023-01-31T17:35:22.933Z,5.7
2023-01-31T17:36:39.223Z,5.7
2023-01-31T17:37:55.516Z,5.6
2023-01-31T17:39:10.826Z,5.6
2023-01-31T17:40:27.000Z,5.6